sensor_id;sensor_type;location;lat;lon;timestamp;P1;durP1;ratioP1;P2;durP2;ratioP2
8857;SDS011;4465;50.904;4.696;2024-03-22T00:02:01;59.45;;;24.30;;
8857;SDS011;4465;50.904;4.696;2024-03-22T00:04:30;67.82;;;24.73;;
8857;SDS011;4465;50.904;4.696;2024-03-22T00:06:55;62.95;;;25.27;;
8857;SDS011;4465;50.904;4.696;2024-03-22T00:09:21;67.10;;;25.65;;
8857;SDS011;4465;50.904;4.696;2024-03-22T00:11:47;67.53;;;25.85;;
8857;SDS011;4465;50.904;4.696;2024-03-22T00:14:15;72.15;;;25.83;;
8857;SDS011;4465;50.904;4.696;2024-03-22T00:16:42;68.55;;;25.27;;
8857;SDS011;4465;50.904;4.696;2024-03-22T00:19:10;65.03;;;25.60;;
8857;SDS011;4465;50.904;4.696;2024-03-22T00:21:38;65.43;;;26.50;;
8857;SDS011;4465;50.904;4.696;2024-03-22T00:24:04;66.85;;;25.88;;
8857;SDS011;4465;50.904;4.696;2024-03-22T00:26:30;69.65;;;25.73;;
8857;SDS011;4465;50.904;4.696;2024-03-22T00:28:56;65.07;;;25.25;;
8857;SDS011;4465;50.904;4.696;2024-03-22T00:31:24;58.97;;;25.38;;
8857;SDS011;4465;50.904;4.696;2024-03-22T00:33:50;68.68;;;27.27;;
8857;SDS011;4465;50.904;4.696;2024-03-22T00:36:16;58.22;;;26.65;;
8857;SDS011;4465;50.904;4.696;2024-03-22T00:38:42;66.60;;;25.77;;
8857;SDS011;4465;50.904;4.696;2024-03-22T00:41:08;65.80;;;24.73;;
8857;SDS011;4465;50.904;4.696;2024-03-22T00:43:38;62.00;;;25.20;;
8857;SDS011;4465;50.904;4.696;2024-03-22T00:46:07;65.63;;;26.30;;
8857;SDS011;4465;50.904;4.696;2024-03-22T00:48:33;60.53;;;24.58;;
8857;SDS011;4465;50.904;4.696;2024-03-22T00:51:00;69.22;;;25.02;;
8857;SDS011;4465;50.904;4.696;2024-03-22T00:53:26;63.97;;;24.67;;
8857;SDS011;4465;50.904;4.696;2024-03-22T00:55:53;62.75;;;24.83;;
8857;SDS011;4465;50.904;4.696;2024-03-22T00:58:25;69.57;;;25.20;;
8857;SDS011;4465;50.904;4.696;2024-03-22T01:00:52;63.08;;;25.58;;
8857;SDS011;4465;50.904;4.696;2024-03-22T01:03:17;63.13;;;25.17;;
8857;SDS011;4465;50.904;4.696;2024-03-22T01:05:46;57.17;;;24.48;;
8857;SDS011;4465;50.904;4.696;2024-03-22T01:08:12;66.70;;;25.83;;
8857;SDS011;4465;50.904;4.696;2024-03-22T01:10:40;65.80;;;24.88;;
8857;SDS011;4465;50.904;4.696;2024-03-22T01:13:08;61.03;;;25.70;;
8857;SDS011;4465;50.904;4.696;2024-03-22T01:15:36;56.65;;;24.25;;
8857;SDS011;4465;50.904;4.696;2024-03-22T01:18:04;57.95;;;23.17;;
8857;SDS011;4465;50.904;4.696;2024-03-22T01:20:30;59.08;;;22.45;;
8857;SDS011;4465;50.904;4.696;2024-03-22T01:22:56;56.55;;;22.48;;
8857;SDS011;4465;50.904;4.696;2024-03-22T01:27:52;49.42;;;21.05;;
8857;SDS011;4465;50.904;4.696;2024-03-22T01:30:18;55.15;;;23.35;;
8857;SDS011;4465;50.904;4.696;2024-03-22T01:32:46;59.22;;;25.05;;
8857;SDS011;4465;50.904;4.696;2024-03-22T01:35:14;53.03;;;22.52;;
8857;SDS011;4465;50.904;4.696;2024-03-22T01:37:43;50.80;;;22.13;;
8857;SDS011;4465;50.904;4.696;2024-03-22T01:40:09;54.85;;;22.88;;
8857;SDS011;4465;50.904;4.696;2024-03-22T01:42:38;52.92;;;21.92;;
8857;SDS011;4465;50.904;4.696;2024-03-22T01:45:04;55.72;;;21.95;;
8857;SDS011;4465;50.904;4.696;2024-03-22T01:47:30;58.30;;;23.25;;
8857;SDS011;4465;50.904;4.696;2024-03-22T01:49:56;53.00;;;21.63;;
8857;SDS011;4465;50.904;4.696;2024-03-22T01:52:25;52.55;;;22.58;;
8857;SDS011;4465;50.904;4.696;2024-03-22T01:54:51;49.38;;;21.33;;
8857;SDS011;4465;50.904;4.696;2024-03-22T01:57:17;53.35;;;21.70;;
8857;SDS011;4465;50.904;4.696;2024-03-22T01:59:43;54.55;;;21.13;;
8857;SDS011;4465;50.904;4.696;2024-03-22T02:02:09;47.00;;;21.60;;
8857;SDS011;4465;50.904;4.696;2024-03-22T02:04:38;47.50;;;21.65;;
8857;SDS011;4465;50.904;4.696;2024-03-22T02:07:08;49.45;;;20.33;;
8857;SDS011;4465;50.904;4.696;2024-03-22T02:09:34;50.03;;;20.50;;
8857;SDS011;4465;50.904;4.696;2024-03-22T02:12:02;43.90;;;19.27;;
8857;SDS011;4465;50.904;4.696;2024-03-22T02:14:28;45.08;;;19.83;;
8857;SDS011;4465;50.904;4.696;2024-03-22T02:16:54;49.95;;;19.98;;
8857;SDS011;4465;50.904;4.696;2024-03-22T02:19:20;43.45;;;19.15;;
8857;SDS011;4465;50.904;4.696;2024-03-22T02:21:46;40.47;;;18.02;;
8857;SDS011;4465;50.904;4.696;2024-03-22T02:24:12;43.67;;;18.48;;
8857;SDS011;4465;50.904;4.696;2024-03-22T02:26:41;50.05;;;19.92;;
8857;SDS011;4465;50.904;4.696;2024-03-22T02:29:07;47.58;;;19.15;;
8857;SDS011;4465;50.904;4.696;2024-03-22T02:31:35;43.13;;;18.67;;
8857;SDS011;4465;50.904;4.696;2024-03-22T02:34:01;39.70;;;17.95;;
8857;SDS011;4465;50.904;4.696;2024-03-22T02:36:27;39.47;;;17.65;;
8857;SDS011;4465;50.904;4.696;2024-03-22T02:38:53;44.80;;;17.38;;
8857;SDS011;4465;50.904;4.696;2024-03-22T02:41:20;43.72;;;18.20;;
8857;SDS011;4465;50.904;4.696;2024-03-22T02:43:47;42.33;;;17.50;;
8857;SDS011;4465;50.904;4.696;2024-03-22T02:46:12;39.85;;;16.95;;
8857;SDS011;4465;50.904;4.696;2024-03-22T02:48:38;45.03;;;17.88;;
8857;SDS011;4465;50.904;4.696;2024-03-22T02:51:04;38.45;;;17.60;;
8857;SDS011;4465;50.904;4.696;2024-03-22T02:53:33;42.78;;;17.77;;
8857;SDS011;4465;50.904;4.696;2024-03-22T02:56:01;36.13;;;16.73;;
8857;SDS011;4465;50.904;4.696;2024-03-22T02:58:30;39.15;;;16.17;;
8857;SDS011;4465;50.904;4.696;2024-03-22T03:01:00;34.50;;;16.42;;
8857;SDS011;4465;50.904;4.696;2024-03-22T03:03:28;40.70;;;15.95;;
8857;SDS011;4465;50.904;4.696;2024-03-22T03:05:53;38.08;;;16.45;;
8857;SDS011;4465;50.904;4.696;2024-03-22T03:08:19;38.92;;;16.52;;
8857;SDS011;4465;50.904;4.696;2024-03-22T03:10:45;34.42;;;15.27;;
8857;SDS011;4465;50.904;4.696;2024-03-22T03:13:11;39.65;;;16.48;;
8857;SDS011;4465;50.904;4.696;2024-03-22T03:15:40;36.50;;;15.50;;
8857;SDS011;4465;50.904;4.696;2024-03-22T03:18:06;44.00;;;15.88;;
8857;SDS011;4465;50.904;4.696;2024-03-22T03:20:31;37.35;;;14.75;;
8857;SDS011;4465;50.904;4.696;2024-03-22T03:22:57;35.92;;;15.00;;
8857;SDS011;4465;50.904;4.696;2024-03-22T03:25:25;37.08;;;15.88;;
8857;SDS011;4465;50.904;4.696;2024-03-22T03:27:51;33.73;;;14.40;;
8857;SDS011;4465;50.904;4.696;2024-03-22T03:30:17;33.70;;;15.55;;
8857;SDS011;4465;50.904;4.696;2024-03-22T03:32:43;33.25;;;14.13;;
8857;SDS011;4465;50.904;4.696;2024-03-22T03:35:12;31.10;;;14.45;;
8857;SDS011;4465;50.904;4.696;2024-03-22T03:37:38;32.90;;;13.98;;
8857;SDS011;4465;50.904;4.696;2024-03-22T03:40:04;27.98;;;12.77;;
8857;SDS011;4465;50.904;4.696;2024-03-22T03:42:30;31.80;;;13.60;;
8857;SDS011;4465;50.904;4.696;2024-03-22T03:44:56;31.08;;;13.55;;
8857;SDS011;4465;50.904;4.696;2024-03-22T03:47:22;30.08;;;12.85;;
8857;SDS011;4465;50.904;4.696;2024-03-22T03:49:48;29.95;;;13.73;;
8857;SDS011;4465;50.904;4.696;2024-03-22T03:52:14;33.03;;;12.60;;
8857;SDS011;4465;50.904;4.696;2024-03-22T03:54:40;29.60;;;12.23;;
8857;SDS011;4465;50.904;4.696;2024-03-22T03:57:06;29.13;;;12.68;;
8857;SDS011;4465;50.904;4.696;2024-03-22T03:59:32;30.75;;;12.40;;
8857;SDS011;4465;50.904;4.696;2024-03-22T04:01:58;28.58;;;12.55;;
8857;SDS011;4465;50.904;4.696;2024-03-22T04:04:26;29.13;;;12.27;;
8857;SDS011;4465;50.904;4.696;2024-03-22T04:06:52;30.33;;;12.15;;
8857;SDS011;4465;50.904;4.696;2024-03-22T04:09:18;28.08;;;12.48;;
8857;SDS011;4465;50.904;4.696;2024-03-22T04:11:44;27.17;;;11.90;;
8857;SDS011;4465;50.904;4.696;2024-03-22T04:14:10;28.55;;;11.82;;
8857;SDS011;4465;50.904;4.696;2024-03-22T04:16:36;25.05;;;11.20;;
8857;SDS011;4465;50.904;4.696;2024-03-22T04:19:01;27.58;;;11.48;;
8857;SDS011;4465;50.904;4.696;2024-03-22T04:21:27;28.73;;;12.65;;
8857;SDS011;4465;50.904;4.696;2024-03-22T04:23:53;30.13;;;12.18;;
8857;SDS011;4465;50.904;4.696;2024-03-22T04:26:19;24.77;;;11.43;;
8857;SDS011;4465;50.904;4.696;2024-03-22T04:28:48;24.02;;;11.38;;
8857;SDS011;4465;50.904;4.696;2024-03-22T04:31:14;29.00;;;12.27;;
8857;SDS011;4465;50.904;4.696;2024-03-22T04:33:42;26.20;;;11.77;;
8857;SDS011;4465;50.904;4.696;2024-03-22T04:36:08;21.33;;;10.75;;
8857;SDS011;4465;50.904;4.696;2024-03-22T04:38:34;22.98;;;10.70;;
8857;SDS011;4465;50.904;4.696;2024-03-22T04:41:00;29.70;;;10.43;;
8857;SDS011;4465;50.904;4.696;2024-03-22T04:43:27;25.92;;;11.15;;
8857;SDS011;4465;50.904;4.696;2024-03-22T04:45:53;20.90;;;9.98;;
8857;SDS011;4465;50.904;4.696;2024-03-22T04:48:23;24.17;;;10.07;;
8857;SDS011;4465;50.904;4.696;2024-03-22T04:50:49;25.30;;;11.37;;
8857;SDS011;4465;50.904;4.696;2024-03-22T04:55:43;23.92;;;9.65;;
8857;SDS011;4465;50.904;4.696;2024-03-22T04:58:15;21.23;;;9.57;;
8857;SDS011;4465;50.904;4.696;2024-03-22T05:00:43;21.42;;;10.13;;
8857;SDS011;4465;50.904;4.696;2024-03-22T05:03:11;19.77;;;9.27;;
8857;SDS011;4465;50.904;4.696;2024-03-22T05:05:38;22.48;;;9.63;;
8857;SDS011;4465;50.904;4.696;2024-03-22T05:08:04;21.48;;;9.27;;
8857;SDS011;4465;50.904;4.696;2024-03-22T05:10:31;20.35;;;9.25;;
8857;SDS011;4465;50.904;4.696;2024-03-22T05:12:57;20.63;;;9.07;;
8857;SDS011;4465;50.904;4.696;2024-03-22T05:15:26;24.30;;;9.88;;
8857;SDS011;4465;50.904;4.696;2024-03-22T05:17:55;22.17;;;10.02;;
8857;SDS011;4465;50.904;4.696;2024-03-22T05:20:22;24.10;;;10.50;;
8857;SDS011;4465;50.904;4.696;2024-03-22T05:22:50;18.55;;;9.02;;
8857;SDS011;4465;50.904;4.696;2024-03-22T05:25:16;24.55;;;8.73;;
8857;SDS011;4465;50.904;4.696;2024-03-22T05:27:44;25.00;;;9.18;;
8857;SDS011;4465;50.904;4.696;2024-03-22T05:30:13;21.60;;;8.93;;
8857;SDS011;4465;50.904;4.696;2024-03-22T05:32:41;20.20;;;8.85;;
8857;SDS011;4465;50.904;4.696;2024-03-22T05:35:07;22.77;;;9.32;;
8857;SDS011;4465;50.904;4.696;2024-03-22T05:37:33;22.35;;;9.07;;
8857;SDS011;4465;50.904;4.696;2024-03-22T05:40:02;18.17;;;8.57;;
8857;SDS011;4465;50.904;4.696;2024-03-22T05:42:35;21.15;;;9.38;;
8857;SDS011;4465;50.904;4.696;2024-03-22T05:45:03;26.58;;;9.93;;
8857;SDS011;4465;50.904;4.696;2024-03-22T05:47:29;21.58;;;9.32;;
8857;SDS011;4465;50.904;4.696;2024-03-22T05:49:56;20.25;;;9.18;;
8857;SDS011;4465;50.904;4.696;2024-03-22T05:52:25;23.63;;;9.23;;
8857;SDS011;4465;50.904;4.696;2024-03-22T05:54:51;21.65;;;9.15;;
8857;SDS011;4465;50.904;4.696;2024-03-22T05:57:17;22.42;;;9.23;;
8857;SDS011;4465;50.904;4.696;2024-03-22T05:59:42;23.55;;;9.88;;
8857;SDS011;4465;50.904;4.696;2024-03-22T06:02:11;23.52;;;9.50;;
8857;SDS011;4465;50.904;4.696;2024-03-22T06:04:37;23.63;;;10.52;;
8857;SDS011;4465;50.904;4.696;2024-03-22T06:07:03;18.88;;;8.68;;
8857;SDS011;4465;50.904;4.696;2024-03-22T06:09:29;26.48;;;10.05;;
8857;SDS011;4465;50.904;4.696;2024-03-22T06:12:14;26.83;;;10.45;;
8857;SDS011;4465;50.904;4.696;2024-03-22T06:14:41;20.75;;;9.30;;
8857;SDS011;4465;50.904;4.696;2024-03-22T06:17:10;26.63;;;11.50;;
8857;SDS011;4465;50.904;4.696;2024-03-22T06:19:39;23.35;;;9.77;;
8857;SDS011;4465;50.904;4.696;2024-03-22T06:22:05;28.08;;;11.05;;
8857;SDS011;4465;50.904;4.696;2024-03-22T06:24:31;24.55;;;10.90;;
8857;SDS011;4465;50.904;4.696;2024-03-22T06:26:59;20.17;;;9.27;;
8857;SDS011;4465;50.904;4.696;2024-03-22T06:29:25;20.38;;;9.75;;
8857;SDS011;4465;50.904;4.696;2024-03-22T06:31:51;28.48;;;11.13;;
8857;SDS011;4465;50.904;4.696;2024-03-22T06:34:18;25.92;;;10.93;;
8857;SDS011;4465;50.904;4.696;2024-03-22T06:36:46;28.27;;;10.65;;
8857;SDS011;4465;50.904;4.696;2024-03-22T06:39:12;26.40;;;10.90;;
8857;SDS011;4465;50.904;4.696;2024-03-22T06:41:41;35.83;;;10.77;;
8857;SDS011;4465;50.904;4.696;2024-03-22T06:44:09;25.10;;;10.38;;
8857;SDS011;4465;50.904;4.696;2024-03-22T06:46:37;19.85;;;8.93;;
8857;SDS011;4465;50.904;4.696;2024-03-22T06:49:06;21.65;;;9.82;;
8857;SDS011;4465;50.904;4.696;2024-03-22T06:51:32;25.75;;;10.25;;
8857;SDS011;4465;50.904;4.696;2024-03-22T06:54:00;23.33;;;9.60;;
8857;SDS011;4465;50.904;4.696;2024-03-22T06:56:26;23.25;;;9.02;;
8857;SDS011;4465;50.904;4.696;2024-03-22T06:58:52;20.65;;;9.55;;
8857;SDS011;4465;50.904;4.696;2024-03-22T07:01:20;19.98;;;9.88;;
8857;SDS011;4465;50.904;4.696;2024-03-22T07:03:46;21.77;;;9.68;;
8857;SDS011;4465;50.904;4.696;2024-03-22T07:06:15;23.27;;;9.75;;
8857;SDS011;4465;50.904;4.696;2024-03-22T07:08:41;24.77;;;9.85;;
8857;SDS011;4465;50.904;4.696;2024-03-22T07:11:07;20.70;;;9.60;;
8857;SDS011;4465;50.904;4.696;2024-03-22T07:13:34;23.20;;;9.35;;
8857;SDS011;4465;50.904;4.696;2024-03-22T07:16:00;22.77;;;9.82;;
8857;SDS011;4465;50.904;4.696;2024-03-22T07:18:26;21.08;;;9.38;;
8857;SDS011;4465;50.904;4.696;2024-03-22T07:20:55;23.70;;;10.38;;
8857;SDS011;4465;50.904;4.696;2024-03-22T07:23:21;23.90;;;10.13;;
8857;SDS011;4465;50.904;4.696;2024-03-22T07:25:47;26.40;;;10.35;;
8857;SDS011;4465;50.904;4.696;2024-03-22T07:28:16;23.43;;;10.23;;
8857;SDS011;4465;50.904;4.696;2024-03-22T07:30:42;24.85;;;9.38;;
8857;SDS011;4465;50.904;4.696;2024-03-22T07:33:09;26.08;;;10.25;;
8857;SDS011;4465;50.904;4.696;2024-03-22T07:35:39;24.33;;;10.38;;
8857;SDS011;4465;50.904;4.696;2024-03-22T07:38:05;20.75;;;8.80;;
8857;SDS011;4465;50.904;4.696;2024-03-22T07:40:32;25.88;;;9.38;;
8857;SDS011;4465;50.904;4.696;2024-03-22T07:42:58;24.52;;;9.68;;
8857;SDS011;4465;50.904;4.696;2024-03-22T07:45:31;21.92;;;9.13;;
8857;SDS011;4465;50.904;4.696;2024-03-22T07:48:04;21.23;;;9.30;;
8857;SDS011;4465;50.904;4.696;2024-03-22T07:50:32;38.38;;;10.02;;
8857;SDS011;4465;50.904;4.696;2024-03-22T07:52:58;29.50;;;9.70;;
8857;SDS011;4465;50.904;4.696;2024-03-22T07:55:26;24.13;;;9.20;;
8857;SDS011;4465;50.904;4.696;2024-03-22T07:57:51;27.30;;;9.93;;
8857;SDS011;4465;50.904;4.696;2024-03-22T08:00:17;25.42;;;9.95;;
8857;SDS011;4465;50.904;4.696;2024-03-22T08:02:44;26.88;;;10.75;;
8857;SDS011;4465;50.904;4.696;2024-03-22T08:05:12;35.15;;;13.65;;
8857;SDS011;4465;50.904;4.696;2024-03-22T08:07:40;28.95;;;11.55;;
8857;SDS011;4465;50.904;4.696;2024-03-22T08:10:09;26.23;;;10.50;;
8857;SDS011;4465;50.904;4.696;2024-03-22T08:12:37;25.35;;;10.50;;
8857;SDS011;4465;50.904;4.696;2024-03-22T08:15:03;27.58;;;10.73;;
8857;SDS011;4465;50.904;4.696;2024-03-22T08:17:30;27.67;;;10.40;;
8857;SDS011;4465;50.904;4.696;2024-03-22T08:19:58;28.80;;;10.88;;
8857;SDS011;4465;50.904;4.696;2024-03-22T08:22:26;26.50;;;10.20;;
8857;SDS011;4465;50.904;4.696;2024-03-22T08:24:52;25.52;;;10.48;;
8857;SDS011;4465;50.904;4.696;2024-03-22T08:27:21;29.33;;;10.18;;
8857;SDS011;4465;50.904;4.696;2024-03-22T08:29:47;24.63;;;9.85;;
8857;SDS011;4465;50.904;4.696;2024-03-22T08:32:15;27.48;;;10.77;;
8857;SDS011;4465;50.904;4.696;2024-03-22T08:34:41;22.23;;;9.88;;
8857;SDS011;4465;50.904;4.696;2024-03-22T08:37:09;26.10;;;9.82;;
8857;SDS011;4465;50.904;4.696;2024-03-22T08:39:37;24.17;;;10.27;;
8857;SDS011;4465;50.904;4.696;2024-03-22T08:42:03;24.67;;;10.07;;
8857;SDS011;4465;50.904;4.696;2024-03-22T08:44:31;22.20;;;9.05;;
8857;SDS011;4465;50.904;4.696;2024-03-22T08:46:59;22.05;;;9.38;;
8857;SDS011;4465;50.904;4.696;2024-03-22T08:49:25;29.27;;;9.25;;
8857;SDS011;4465;50.904;4.696;2024-03-22T08:51:51;24.20;;;9.23;;
8857;SDS011;4465;50.904;4.696;2024-03-22T08:54:17;26.05;;;9.52;;
8857;SDS011;4465;50.904;4.696;2024-03-22T08:56:45;22.55;;;10.13;;
8857;SDS011;4465;50.904;4.696;2024-03-22T08:59:13;22.50;;;10.38;;
8857;SDS011;4465;50.904;4.696;2024-03-22T09:01:41;23.77;;;10.70;;
8857;SDS011;4465;50.904;4.696;2024-03-22T09:04:06;23.02;;;10.20;;
8857;SDS011;4465;50.904;4.696;2024-03-22T09:06:32;25.63;;;10.02;;
8857;SDS011;4465;50.904;4.696;2024-03-22T09:09:03;28.45;;;11.48;;
8857;SDS011;4465;50.904;4.696;2024-03-22T09:11:29;26.95;;;11.75;;
8857;SDS011;4465;50.904;4.696;2024-03-22T09:13:55;24.90;;;11.45;;
8857;SDS011;4465;50.904;4.696;2024-03-22T09:16:21;27.48;;;12.38;;
8857;SDS011;4465;50.904;4.696;2024-03-22T09:18:48;25.33;;;10.70;;
8857;SDS011;4465;50.904;4.696;2024-03-22T09:21:14;22.50;;;11.25;;
8857;SDS011;4465;50.904;4.696;2024-03-22T09:23:40;23.08;;;11.30;;
8857;SDS011;4465;50.904;4.696;2024-03-22T09:26:08;23.48;;;10.43;;
8857;SDS011;4465;50.904;4.696;2024-03-22T09:28:34;23.98;;;11.95;;
8857;SDS011;4465;50.904;4.696;2024-03-22T09:31:07;26.15;;;10.73;;
8857;SDS011;4465;50.904;4.696;2024-03-22T09:33:33;26.42;;;11.40;;
8857;SDS011;4465;50.904;4.696;2024-03-22T09:36:04;25.25;;;10.48;;
8857;SDS011;4465;50.904;4.696;2024-03-22T09:38:30;23.48;;;10.20;;
8857;SDS011;4465;50.904;4.696;2024-03-22T09:40:57;30.02;;;11.48;;
8857;SDS011;4465;50.904;4.696;2024-03-22T09:43:23;23.05;;;10.45;;
8857;SDS011;4465;50.904;4.696;2024-03-22T09:45:52;24.58;;;10.57;;
8857;SDS011;4465;50.904;4.696;2024-03-22T09:48:22;23.77;;;10.23;;
8857;SDS011;4465;50.904;4.696;2024-03-22T09:50:51;20.20;;;9.10;;
8857;SDS011;4465;50.904;4.696;2024-03-22T09:53:20;25.02;;;10.25;;
8857;SDS011;4465;50.904;4.696;2024-03-22T09:55:48;22.42;;;9.63;;
8857;SDS011;4465;50.904;4.696;2024-03-22T10:00:44;21.88;;;9.10;;
8857;SDS011;4465;50.904;4.696;2024-03-22T10:03:10;22.52;;;9.93;;
8857;SDS011;4465;50.904;4.696;2024-03-22T10:05:36;22.55;;;9.43;;
8857;SDS011;4465;50.904;4.696;2024-03-22T10:08:04;21.85;;;9.05;;
8857;SDS011;4465;50.904;4.696;2024-03-22T10:10:33;21.83;;;9.77;;
8857;SDS011;4465;50.904;4.696;2024-03-22T10:13:03;21.63;;;10.23;;
8857;SDS011;4465;50.904;4.696;2024-03-22T10:15:32;21.55;;;9.52;;
8857;SDS011;4465;50.904;4.696;2024-03-22T10:17:58;22.80;;;9.80;;
8857;SDS011;4465;50.904;4.696;2024-03-22T10:20:24;25.95;;;10.15;;
8857;SDS011;4465;50.904;4.696;2024-03-22T10:22:56;18.38;;;8.85;;
8857;SDS011;4465;50.904;4.696;2024-03-22T10:25:25;22.92;;;9.65;;
8857;SDS011;4465;50.904;4.696;2024-03-22T10:27:57;19.40;;;9.48;;
8857;SDS011;4465;50.904;4.696;2024-03-22T10:30:25;18.70;;;9.43;;
8857;SDS011;4465;50.904;4.696;2024-03-22T10:32:51;24.00;;;10.35;;
8857;SDS011;4465;50.904;4.696;2024-03-22T10:35:17;23.58;;;10.07;;
8857;SDS011;4465;50.904;4.696;2024-03-22T10:37:48;24.67;;;10.30;;
8857;SDS011;4465;50.904;4.696;2024-03-22T10:40:15;24.88;;;10.85;;
8857;SDS011;4465;50.904;4.696;2024-03-22T10:42:45;22.15;;;9.32;;
8857;SDS011;4465;50.904;4.696;2024-03-22T10:45:13;27.80;;;10.38;;
8857;SDS011;4465;50.904;4.696;2024-03-22T10:47:39;23.60;;;10.50;;
8857;SDS011;4465;50.904;4.696;2024-03-22T10:50:08;21.58;;;10.35;;
8857;SDS011;4465;50.904;4.696;2024-03-22T10:52:37;24.33;;;10.40;;
8857;SDS011;4465;50.904;4.696;2024-03-22T10:55:24;20.95;;;10.20;;
8857;SDS011;4465;50.904;4.696;2024-03-22T10:57:58;22.50;;;10.65;;
8857;SDS011;4465;50.904;4.696;2024-03-22T11:00:28;21.13;;;10.18;;
8857;SDS011;4465;50.904;4.696;2024-03-22T11:02:55;23.42;;;10.95;;
8857;SDS011;4465;50.904;4.696;2024-03-22T11:05:21;21.70;;;11.00;;
8857;SDS011;4465;50.904;4.696;2024-03-22T11:07:48;22.70;;;10.27;;
8857;SDS011;4465;50.904;4.696;2024-03-22T11:10:26;23.73;;;10.52;;
8857;SDS011;4465;50.904;4.696;2024-03-22T11:13:01;21.13;;;10.48;;
8857;SDS011;4465;50.904;4.696;2024-03-22T11:15:28;23.48;;;10.70;;
8857;SDS011;4465;50.904;4.696;2024-03-22T11:17:55;35.90;;;11.00;;
8857;SDS011;4465;50.904;4.696;2024-03-22T11:20:21;22.07;;;10.40;;
8857;SDS011;4465;50.904;4.696;2024-03-22T11:22:47;22.48;;;10.10;;
8857;SDS011;4465;50.904;4.696;2024-03-22T11:25:13;21.75;;;9.30;;
8857;SDS011;4465;50.904;4.696;2024-03-22T11:27:39;21.23;;;10.13;;
8857;SDS011;4465;50.904;4.696;2024-03-22T11:30:05;21.23;;;10.23;;
8857;SDS011;4465;50.904;4.696;2024-03-22T11:35:03;20.88;;;9.60;;
8857;SDS011;4465;50.904;4.696;2024-03-22T11:37:34;19.92;;;9.63;;
8857;SDS011;4465;50.904;4.696;2024-03-22T11:40:02;18.55;;;9.23;;
8857;SDS011;4465;50.904;4.696;2024-03-22T11:42:34;18.65;;;9.32;;
8857;SDS011;4465;50.904;4.696;2024-03-22T11:45:00;22.45;;;10.07;;
8857;SDS011;4465;50.904;4.696;2024-03-22T11:47:27;23.65;;;10.27;;
8857;SDS011;4465;50.904;4.696;2024-03-22T11:49:56;20.08;;;10.15;;
8857;SDS011;4465;50.904;4.696;2024-03-22T11:52:25;24.55;;;10.95;;
8857;SDS011;4465;50.904;4.696;2024-03-22T11:54:51;21.63;;;11.35;;
8857;SDS011;4465;50.904;4.696;2024-03-22T11:57:18;22.88;;;10.10;;
8857;SDS011;4465;50.904;4.696;2024-03-22T11:59:48;23.02;;;11.10;;
8857;SDS011;4465;50.904;4.696;2024-03-22T12:02:14;21.10;;;10.90;;
8857;SDS011;4465;50.904;4.696;2024-03-22T12:04:50;24.63;;;11.18;;
8857;SDS011;4465;50.904;4.696;2024-03-22T12:07:18;19.63;;;10.20;;
8857;SDS011;4465;50.904;4.696;2024-03-22T12:09:44;26.35;;;11.63;;
8857;SDS011;4465;50.904;4.696;2024-03-22T12:12:12;26.15;;;11.63;;
8857;SDS011;4465;50.904;4.696;2024-03-22T12:14:39;24.75;;;11.65;;
8857;SDS011;4465;50.904;4.696;2024-03-22T12:17:05;29.77;;;12.38;;
8857;SDS011;4465;50.904;4.696;2024-03-22T12:19:32;25.27;;;10.73;;
8857;SDS011;4465;50.904;4.696;2024-03-22T12:21:58;19.58;;;9.65;;
8857;SDS011;4465;50.904;4.696;2024-03-22T12:24:27;25.35;;;10.43;;
8857;SDS011;4465;50.904;4.696;2024-03-22T12:26:53;22.77;;;9.57;;
8857;SDS011;4465;50.904;4.696;2024-03-22T12:29:19;22.20;;;10.25;;
8857;SDS011;4465;50.904;4.696;2024-03-22T12:31:46;23.42;;;9.95;;
8857;SDS011;4465;50.904;4.696;2024-03-22T12:34:14;22.27;;;9.38;;
8857;SDS011;4465;50.904;4.696;2024-03-22T12:36:40;22.27;;;10.48;;
8857;SDS011;4465;50.904;4.696;2024-03-22T12:39:09;19.92;;;10.80;;
8857;SDS011;4465;50.904;4.696;2024-03-22T12:41:35;23.50;;;11.50;;
8857;SDS011;4465;50.904;4.696;2024-03-22T12:44:01;25.70;;;11.45;;
8857;SDS011;4465;50.904;4.696;2024-03-22T12:46:29;25.67;;;10.93;;
8857;SDS011;4465;50.904;4.696;2024-03-22T12:48:55;20.63;;;10.27;;
8857;SDS011;4465;50.904;4.696;2024-03-22T12:51:23;24.40;;;10.63;;
8857;SDS011;4465;50.904;4.696;2024-03-22T12:53:49;23.63;;;10.60;;
8857;SDS011;4465;50.904;4.696;2024-03-22T12:56:17;21.73;;;10.48;;
8857;SDS011;4465;50.904;4.696;2024-03-22T12:58:43;21.60;;;10.65;;
8857;SDS011;4465;50.904;4.696;2024-03-22T13:01:11;24.95;;;10.95;;
8857;SDS011;4465;50.904;4.696;2024-03-22T13:03:37;28.38;;;11.55;;
8857;SDS011;4465;50.904;4.696;2024-03-22T13:06:06;22.77;;;11.57;;
8857;SDS011;4465;50.904;4.696;2024-03-22T13:08:34;24.10;;;11.70;;
8857;SDS011;4465;50.904;4.696;2024-03-22T13:11:02;22.92;;;10.52;;
8857;SDS011;4465;50.904;4.696;2024-03-22T13:13:30;22.98;;;11.73;;
8857;SDS011;4465;50.904;4.696;2024-03-22T13:15:57;22.80;;;11.30;;
8857;SDS011;4465;50.904;4.696;2024-03-22T13:18:26;21.20;;;10.38;;
8857;SDS011;4465;50.904;4.696;2024-03-22T13:20:54;24.83;;;11.30;;
8857;SDS011;4465;50.904;4.696;2024-03-22T13:23:20;24.73;;;10.40;;
8857;SDS011;4465;50.904;4.696;2024-03-22T13:25:48;22.50;;;11.07;;
8857;SDS011;4465;50.904;4.696;2024-03-22T13:28:17;29.05;;;10.07;;
8857;SDS011;4465;50.904;4.696;2024-03-22T13:30:46;21.92;;;9.90;;
8857;SDS011;4465;50.904;4.696;2024-03-22T13:33:13;25.80;;;10.52;;
8857;SDS011;4465;50.904;4.696;2024-03-22T13:35:43;24.92;;;10.32;;
8857;SDS011;4465;50.904;4.696;2024-03-22T13:38:10;23.25;;;10.93;;
8857;SDS011;4465;50.904;4.696;2024-03-22T13:40:38;33.55;;;11.23;;
8857;SDS011;4465;50.904;4.696;2024-03-22T13:43:08;24.77;;;10.63;;
8857;SDS011;4465;50.904;4.696;2024-03-22T13:45:38;22.13;;;10.25;;
8857;SDS011;4465;50.904;4.696;2024-03-22T13:48:10;22.63;;;10.30;;
8857;SDS011;4465;50.904;4.696;2024-03-22T13:50:40;20.63;;;9.27;;
8857;SDS011;4465;50.904;4.696;2024-03-22T13:53:06;18.25;;;9.25;;
8857;SDS011;4465;50.904;4.696;2024-03-22T13:55:33;16.58;;;8.48;;
8857;SDS011;4465;50.904;4.696;2024-03-22T13:58:00;19.87;;;8.90;;
8857;SDS011;4465;50.904;4.696;2024-03-22T14:00:29;20.98;;;8.80;;
8857;SDS011;4465;50.904;4.696;2024-03-22T14:02:55;29.42;;;8.93;;
8857;SDS011;4465;50.904;4.696;2024-03-22T14:05:21;17.20;;;7.95;;
8857;SDS011;4465;50.904;4.696;2024-03-22T14:07:51;19.95;;;7.93;;
8857;SDS011;4465;50.904;4.696;2024-03-22T14:10:17;24.63;;;7.57;;
8857;SDS011;4465;50.904;4.696;2024-03-22T14:12:45;24.40;;;7.75;;
8857;SDS011;4465;50.904;4.696;2024-03-22T14:15:14;20.20;;;8.48;;
8857;SDS011;4465;50.904;4.696;2024-03-22T14:17:41;22.98;;;7.97;;
8857;SDS011;4465;50.904;4.696;2024-03-22T14:20:09;18.83;;;7.60;;
8857;SDS011;4465;50.904;4.696;2024-03-22T14:22:41;13.82;;;7.07;;
8857;SDS011;4465;50.904;4.696;2024-03-22T14:25:07;22.65;;;7.88;;
8857;SDS011;4465;50.904;4.696;2024-03-22T14:27:36;22.67;;;7.90;;
8857;SDS011;4465;50.904;4.696;2024-03-22T14:30:02;17.73;;;7.97;;
8857;SDS011;4465;50.904;4.696;2024-03-22T14:32:35;21.50;;;7.55;;
8857;SDS011;4465;50.904;4.696;2024-03-22T14:35:01;17.33;;;7.63;;
8857;SDS011;4465;50.904;4.696;2024-03-22T14:37:27;17.15;;;7.70;;
8857;SDS011;4465;50.904;4.696;2024-03-22T14:39:52;17.45;;;8.40;;
8857;SDS011;4465;50.904;4.696;2024-03-22T14:42:18;16.80;;;7.88;;
8857;SDS011;4465;50.904;4.696;2024-03-22T14:44:46;19.27;;;7.70;;
8857;SDS011;4465;50.904;4.696;2024-03-22T14:47:12;18.33;;;8.00;;
8857;SDS011;4465;50.904;4.696;2024-03-22T14:49:41;27.20;;;8.05;;
8857;SDS011;4465;50.904;4.696;2024-03-22T14:52:07;20.65;;;8.23;;
8857;SDS011;4465;50.904;4.696;2024-03-22T14:54:36;17.17;;;8.00;;
8857;SDS011;4465;50.904;4.696;2024-03-22T14:57:02;18.30;;;7.32;;
8857;SDS011;4465;50.904;4.696;2024-03-22T14:59:28;14.32;;;7.35;;
8857;SDS011;4465;50.904;4.696;2024-03-22T15:01:54;14.90;;;7.40;;
8857;SDS011;4465;50.904;4.696;2024-03-22T15:04:20;14.77;;;6.47;;